Time;durP1;ratioP1;P1;durP2;ratioP2;P2;SDS_P1;SDS_P2;PMS_P1;PMS_P2;Temp;Humidity;BMP_temperature;BMP_pressure;BME280_temperature;BME280_humidity;BME280_pressure;Samples;Min_cycle;Max_cycle;Signal;HPM_P1;HPM_P2
2023/04/27 00:00:18;;;;;;;10.88;5.22;;;;;;;-146.27;95.28;84357.31;5089581;28;20069;-67
2023/04/27 00:02:43;;;;;;;9.13;5.45;;;;;;;-146.27;94.81;84377.41;5085508;28;20111;-66
2023/04/27 00:05:10;;;;;;;16.20;6.03;;;;;;;-146.27;95.24;84437.72;5091253;28;20059;-67
2023/04/27 00:07:35;;;;;;;14.82;5.60;;;;;;;-146.27;96.85;84431.69;5079874;28;20027;-65
2023/04/27 00:10:01;;;;;;;9.13;5.63;;;;;;;-146.27;96.44;84391.47;5078614;28;20083;-67
2023/04/27 00:12:26;;;;;;;10.68;5.55;;;;;;;-146.27;97.11;84381.44;5091641;28;20040;-67
2023/04/27 00:14:52;;;;;;;11.38;5.70;;;;;;;-146.27;95.63;84409.56;5087657;28;20019;-67
2023/04/27 00:17:17;;;;;;;7.80;4.85;;;;;;;-146.27;95.35;84441.72;5086431;28;20059;-68
2023/04/27 00:19:43;;;;;;;10.82;5.40;;;;;;;-146.27;96.57;84431.69;5082790;28;20379;-66
2023/04/27 00:22:08;;;;;;;11.32;5.50;;;;;;;-146.27;96.45;84433.69;5084770;28;20024;-67
2023/04/27 00:24:33;;;;;;;8.65;5.40;;;;;;;-146.27;96.51;84429.66;5089978;28;20020;-66
2023/04/27 00:26:59;;;;;;;10.98;5.72;;;;;;;-146.27;96.49;84415.59;5085236;28;20055;-66
2023/04/27 00:29:24;;;;;;;7.45;4.70;;;;;;;-146.27;96.32;84421.63;5086590;28;20012;-66
2023/04/27 00:31:50;;;;;;;9.95;4.72;;;;;;;-146.27;96.25;84425.66;5097960;28;20102;-66
2023/04/27 00:34:15;;;;;;;13.13;5.22;;;;;;;-146.27;98.68;84433.69;5089658;28;20025;-66
2023/04/27 00:36:40;;;;;;;10.38;5.50;;;;;;;-146.27;97.81;84449.75;5096251;28;20547;-66
2023/04/27 00:39:06;;;;;;;8.43;5.30;;;;;;;-146.27;97.96;84449.75;5092138;28;20035;-65
2023/04/27 00:41:31;;;;;;;9.80;5.30;;;;;;;-146.27;99.11;84437.72;5094172;28;20019;-67
2023/04/27 00:43:57;;;;;;;9.80;5.35;;;;;;;-146.27;98.93;84435.69;5093518;28;20095;-67
2023/04/27 00:46:23;;;;;;;9.32;5.55;;;;;;;-146.27;99.07;84405.56;5098046;28;20024;-66
2023/04/27 00:48:49;;;;;;;13.93;5.90;;;;;;;-146.27;99.54;84429.66;5095388;28;20036;-66
2023/04/27 00:51:14;;;;;;;13.48;6.18;;;;;;;-146.27;98.97;84433.69;5098225;28;20410;-66
2023/04/27 00:53:40;;;;;;;10.63;5.00;;;;;;;-146.27;98.87;84477.91;5098079;28;20024;-65
2023/04/27 00:56:06;;;;;;;11.43;5.43;;;;;;;-146.27;98.70;84510.06;5095464;28;20484;-66
2023/04/27 00:58:31;;;;;;;12.07;5.63;;;;;;;-146.27;97.95;84453.78;5094451;28;20032;-66
2023/04/27 01:00:58;;;;;;;9.43;4.90;;;;;;;-146.27;98.42;84500.00;5083813;28;20031;-66
2023/04/27 01:03:25;;;;;;;12.38;5.43;;;;;;;-146.27;98.20;84493.97;5094846;28;20040;-67
2023/04/27 01:05:50;;;;;;;6.97;4.93;;;;;;;-146.27;98.10;84508.06;5094454;28;20028;-66
2023/04/27 01:08:16;;;;;;;10.73;5.65;;;;;;;-146.27;100.00;84534.19;5082031;28;20116;-67
2023/04/27 01:10:41;;;;;;;8.82;5.25;;;;;;;-146.27;100.00;84526.13;5082804;28;20020;-67
2023/04/27 01:13:06;;;;;;;8.27;5.40;;;;;;;-146.27;99.62;84524.13;5094535;28;20089;-66
2023/04/27 01:15:32;;;;;;;11.65;5.50;;;;;;;-146.27;99.78;84502.03;5085158;28;20468;-67
2023/04/27 01:17:59;;;;;;;8.80;4.80;;;;;;;-146.27;99.25;84534.19;5081881;28;20052;-66
2023/04/27 01:20:25;;;;;;;9.88;5.13;;;;;;;-146.27;99.36;84522.13;5082982;28;20028;-66
2023/04/27 01:22:52;;;;;;;8.82;5.07;;;;;;;-146.27;98.76;84566.34;5095718;28;20752;-66
2023/04/27 01:25:18;;;;;;;8.98;5.63;;;;;;;-146.27;99.91;84534.19;5093885;28;20093;-65
2023/04/27 01:27:44;;;;;;;9.43;5.72;;;;;;;-146.27;99.99;84546.25;5084143;28;20078;-66
2023/04/27 01:30:09;;;;;;;8.63;5.13;;;;;;;-146.27;99.58;84562.31;5093938;28;20028;-67
2023/04/27 01:32:37;;;;;;;13.15;6.05;;;;;;;-146.27;100.00;84542.22;5098578;28;20471;-66
2023/04/27 01:35:02;;;;;;;14.93;6.57;;;;;;;-146.27;100.00;84568.34;5082495;28;20020;-66
2023/04/27 01:37:27;;;;;;;11.02;6.03;;;;;;;-146.27;100.00;84542.22;5097079;28;20032;-66
2023/04/27 01:39:53;;;;;;;10.48;5.72;;;;;;;-146.27;100.00;84540.22;5090895;28;20027;-67
2023/04/27 01:42:18;;;;;;;9.52;5.97;;;;;;;-146.27;100.00;84574.38;5081680;28;20024;-66
2023/04/27 01:44:43;;;;;;;13.73;6.80;;;;;;;-146.27;100.00;84570.34;5085914;28;20069;-65
2023/04/27 01:47:09;;;;;;;10.32;5.63;;;;;;;-146.27;100.00;84550.25;5093367;28;20034;-66
2023/04/27 01:49:34;;;;;;;13.23;6.28;;;;;;;-146.27;100.00;84562.31;5091738;28;20115;-66
2023/04/27 01:51:59;;;;;;;14.75;6.35;;;;;;;-146.27;100.00;84546.25;5094312;28;20112;-66
2023/04/27 01:54:25;;;;;;;14.63;6.60;;;;;;;-146.27;100.00;84538.19;5089338;28;20025;-66
2023/04/27 01:56:50;;;;;;;12.55;6.38;;;;;;;-146.27;100.00;84544.22;5094216;28;20032;-66
2023/04/27 01:59:16;;;;;;;10.65;6.28;;;;;;;-146.27;100.00;84526.13;5088576;28;20032;-68
2023/04/27 02:01:41;;;;;;;10.90;5.93;;;;;;;-146.27;100.00;84546.25;5093356;28;20027;-66
2023/04/27 02:04:06;;;;;;;13.52;6.90;;;;;;;-146.27;100.00;84546.25;5091278;28;20032;-66
2023/04/27 02:06:32;;;;;;;13.57;6.85;;;;;;;-146.27;100.00;84550.25;5095100;28;20406;-66
2023/04/27 02:08:57;;;;;;;15.13;6.53;;;;;;;-146.27;100.00;84610.56;5089858;28;20048;-66
2023/04/27 02:11:22;;;;;;;10.25;6.13;;;;;;;-146.27;100.00;84558.31;5086035;28;20025;-67
2023/04/27 02:13:48;;;;;;;10.80;6.75;;;;;;;-146.27;100.00;84546.25;5091043;28;20034;-65
2023/04/27 02:16:13;;;;;;;18.08;7.22;;;;;;;-146.27;100.00;84530.16;5092163;28;20020;-66
2023/04/27 02:18:39;;;;;;;11.27;6.38;;;;;;;-146.27;100.00;84546.25;5091407;28;20104;-66
2023/04/27 02:21:08;;;;;;;11.38;7.00;;;;;;;-146.27;100.00;84522.13;5092759;28;20162;-67
2023/04/27 02:23:34;;;;;;;17.15;6.97;;;;;;;-146.27;100.00;84554.28;5093471;28;20475;-66
2023/04/27 02:25:59;;;;;;;15.13;7.20;;;;;;;-146.27;100.00;84522.13;5091464;28;20034;-67
2023/04/27 02:28:25;;;;;;;14.90;7.13;;;;;;;-146.27;100.00;84512.06;5090310;28;20024;-66
2023/04/27 02:30:50;;;;;;;12.00;6.40;;;;;;;-146.27;100.00;84542.22;5089051;28;20019;-66
2023/04/27 02:33:16;;;;;;;10.07;5.78;;;;;;;-146.27;100.00;84530.16;5093711;28;20440;-66
2023/04/27 02:35:41;;;;;;;9.50;6.50;;;;;;;-146.27;100.00;84522.13;5092403;28;20032;-66
2023/04/27 02:38:06;;;;;;;11.57;5.75;;;;;;;-146.27;100.00;84536.19;5092082;28;20028;-66
2023/04/27 02:40:32;;;;;;;10.65;6.35;;;;;;;-146.27;100.00;84506.03;5087360;28;20120;-67
2023/04/27 02:42:57;;;;;;;11.45;5.82;;;;;;;-146.27;100.00;84514.09;5092432;28;20030;-66
2023/04/27 02:45:23;;;;;;;10.50;5.90;;;;;;;-146.27;100.00;84502.03;5085933;28;20550;-67
2023/04/27 02:47:49;;;;;;;11.68;6.43;;;;;;;-146.27;100.00;84502.03;5088666;28;20028;-67
2023/04/27 02:50:15;;;;;;;10.88;5.40;;;;;;;-146.27;100.00;84493.97;5078523;28;20103;-66
2023/04/27 02:52:40;;;;;;;14.65;5.30;;;;;;;-146.27;100.00;84496.00;5094058;28;20070;-66
2023/04/27 02:55:06;;;;;;;8.85;5.00;;;;;;;-146.27;100.00;84483.94;5090658;28;20042;-67
2023/04/27 02:57:31;;;;;;;11.18;4.90;;;;;;;-146.27;100.00;84524.13;5080671;28;20074;-66
2023/04/27 02:59:56;;;;;;;12.20;5.90;;;;;;;-146.27;100.00;84510.06;5091616;28;20030;-66
2023/04/27 03:02:22;;;;;;;7.10;5.10;;;;;;;-146.27;100.00;84528.16;5088296;28;20028;-67
2023/04/27 03:04:52;;;;;;;13.10;5.38;;;;;;;-146.27;100.00;84530.16;5092199;28;20373;-66
2023/04/27 03:07:17;;;;;;;9.32;5.93;;;;;;;-146.27;100.00;84522.13;5091169;28;20035;-67
2023/04/27 03:09:43;;;;;;;11.35;5.40;;;;;;;-146.27;100.00;84518.09;5091307;28;20055;-66
2023/04/27 03:12:08;;;;;;;12.20;5.47;;;;;;;-146.27;100.00;84530.16;5092258;28;20106;-67
2023/04/27 03:14:34;;;;;;;10.98;5.05;;;;;;;-146.27;100.00;84556.28;5092258;28;20020;-66
2023/04/27 03:16:59;;;;;;;14.48;5.20;;;;;;;-146.27;100.00;84548.25;5089986;28;20074;-66
2023/04/27 03:19:25;;;;;;;12.13;5.15;;;;;;;-146.27;100.00;84542.22;5085624;28;20028;-67
2023/04/27 03:21:50;;;;;;;10.55;5.57;;;;;;;-146.27;100.00;84546.25;5085802;28;20035;-66
2023/04/27 03:24:16;;;;;;;8.55;4.85;;;;;;;-146.27;100.00;84526.13;5092254;28;20380;-67
2023/04/27 03:26:41;;;;;;;10.27;5.28;;;;;;;-146.27;100.00;84566.34;5091768;28;20032;-67
2023/04/27 03:29:06;;;;;;;9.00;4.95;;;;;;;-146.27;100.00;84564.31;5091105;28;20028;-66
2023/04/27 03:31:32;;;;;;;9.80;5.68;;;;;;;-146.27;100.00;84582.41;5091326;28;20024;-66
2023/04/27 03:33:57;;;;;;;15.88;5.45;;;;;;;-146.27;100.00;84574.38;5091479;28;20039;-65
2023/04/27 03:36:22;;;;;;;10.98;5.53;;;;;;;-146.27;100.00;84594.47;5089481;28;20024;-67
2023/04/27 03:38:48;;;;;;;8.85;4.40;;;;;;;-146.27;100.00;84586.44;5089540;28;20028;-66
2023/04/27 03:41:13;;;;;;;12.02;5.00;;;;;;;-146.27;100.00;84618.59;5092260;28;20036;-66
2023/04/27 03:43:39;;;;;;;10.55;5.30;;;;;;;-146.27;100.00;84622.63;5090275;28;20384;-66
2023/04/27 03:46:04;;;;;;;10.85;5.45;;;;;;;-146.27;100.00;84634.69;5090734;28;20081;-66
2023/04/27 03:48:29;;;;;;;8.82;5.30;;;;;;;-146.27;100.00;84624.63;5088548;28;20035;-67
2023/04/27 03:50:55;;;;;;;10.13;4.75;;;;;;;-146.27;100.00;84640.69;5089333;28;20044;-66
2023/04/27 03:53:20;;;;;;;9.20;4.90;;;;;;;-146.27;100.00;84618.59;5090800;28;20020;-66
2023/04/27 03:55:46;;;;;;;11.45;5.20;;;;;;;-146.27;100.00;84662.81;5086991;28;20375;-66
2023/04/27 03:58:12;;;;;;;10.93;5.47;;;;;;;-146.27;100.00;84674.88;5090040;28;20035;-66
2023/04/27 04:00:38;;;;;;;9.90;5.35;;;;;;;-146.27;100.00;84658.78;5084856;28;20020;-67
2023/04/27 04:03:04;;;;;;;9.77;5.55;;;;;;;-146.27;100.00;84682.91;5078322;28;20036;-67
2023/04/27 04:05:30;;;;;;;12.45;5.47;;;;;;;-146.27;100.00;84682.91;5085841;28;20037;-66
2023/04/27 04:07:58;;;;;;;11.95;5.18;;;;;;;-146.27;100.00;84688.94;5086403;28;20046;-66
2023/04/27 04:10:24;;;;;;;11.02;5.78;;;;;;;-146.27;100.00;84662.81;5088764;28;20038;-67
2023/04/27 04:12:50;;;;;;;13.38;6.55;;;;;;;-146.27;100.00;84692.97;5091949;28;20103;-66
2023/04/27 04:15:16;;;;;;;9.30;5.18;;;;;;;-146.27;100.00;84690.94;5090542;28;20013;-66
2023/04/27 04:17:41;;;;;;;10.48;5.85;;;;;;;-146.27;100.00;84701.00;5085262;28;20077;-67
2023/04/27 04:20:08;;;;;;;13.60;6.45;;;;;;;-146.27;100.00;84666.84;5086729;28;20024;-67
2023/04/27 04:22:34;;;;;;;11.80;5.70;;;;;;;-146.27;100.00;84618.59;5092073;28;20024;-65
2023/04/27 04:24:59;;;;;;;13.18;5.38;;;;;;;-146.27;100.00;84686.94;5090710;28;20022;-65
2023/04/27 04:27:24;;;;;;;14.55;6.00;;;;;;;-146.27;100.00;84664.81;5085871;28;20042;-66
2023/04/27 04:29:50;;;;;;;14.32;5.60;;;;;;;-146.27;100.00;84731.16;5088830;28;20012;-65
2023/04/27 04:32:17;;;;;;;9.65;5.38;;;;;;;-146.27;100.00;84694.97;5086717;28;20023;-67
2023/04/27 04:34:43;;;;;;;12.55;6.63;;;;;;;-146.27;100.00;84707.03;5078117;28;20031;-66
2023/04/27 04:37:08;;;;;;;9.07;5.63;;;;;;;-146.27;100.00;84705.03;5091964;28;20028;-65
2023/04/27 04:39:33;;;;;;;12.10;5.65;;;;;;;-146.27;100.00;84694.97;5090272;28;20068;-66
2023/04/27 04:41:59;;;;;;;11.70;6.18;;;;;;;-146.27;100.00;84660.81;5090807;28;20068;-66
2023/04/27 04:44:24;;;;;;;14.68;6.40;;;;;;;-146.27;100.00;84699.00;5092197;28;20058;-66
2023/04/27 04:46:50;;;;;;;13.15;6.10;;;;;;;-146.27;100.00;84711.06;5087935;28;20069;-67
2023/04/27 04:49:16;;;;;;;9.75;5.53;;;;;;;-146.27;100.00;84694.97;5090787;28;20024;-67
2023/04/27 04:51:43;;;;;;;12.07;6.53;;;;;;;-146.27;100.00;84674.88;5080783;28;20089;-67
2023/04/27 04:54:09;;;;;;;12.68;6.57;;;;;;;-146.27;100.00;84660.81;5092065;28;20088;-66
2023/04/27 04:56:34;;;;;;;16.15;6.88;;;;;;;-146.27;100.00;84642.72;5088722;28;20028;-66
2023/04/27 04:59:00;;;;;;;12.02;6.75;;;;;;;-146.27;100.00;84658.78;5086903;28;20016;-66
2023/04/27 05:01:26;;;;;;;15.45;6.00;;;;;;;-146.27;100.00;84680.91;5086739;28;20028;-66
2023/04/27 05:03:51;;;;;;;10.02;5.55;;;;;;;-146.27;100.00;84694.97;5089038;28;20021;-66
2023/04/27 05:06:16;;;;;;;8.65;5.97;;;;;;;-146.27;100.00;84670.84;5084462;28;20036;-67
2023/04/27 05:08:42;;;;;;;10.35;6.45;;;;;;;-146.27;100.00;84636.69;5078196;28;20170;-66
2023/04/27 05:11:07;;;;;;;12.10;6.13;;;;;;;-146.27;100.00;84686.94;5088788;28;20032;-66
2023/04/27 05:13:32;;;;;;;10.80;5.35;;;;;;;-146.27;100.00;84642.72;5080249;28;20120;-66
2023/04/27 05:15:58;;;;;;;13.70;6.47;;;;;;;-146.27;100.00;84618.59;5087185;28;20126;-67
2023/04/27 05:18:23;;;;;;;10.88;6.32;;;;;;;-146.27;100.00;84662.81;5082871;28;20365;-66
2023/04/27 05:20:48;;;;;;;11.27;6.53;;;;;;;-146.27;100.00;84650.75;5078145;28;20471;-66
2023/04/27 05:23:14;;;;;;;12.45;5.75;;;;;;;-146.27;100.00;84626.63;5075807;28;20131;-67
2023/04/27 05:25:42;;;;;;;16.23;6.40;;;;;;;-146.27;100.00;84598.50;5074385;28;20112;-67
2023/04/27 05:28:09;;;;;;;17.27;7.38;;;;;;;-146.27;100.00;84646.72;5078418;28;20030;-66
2023/04/27 05:30:35;;;;;;;10.98;6.25;;;;;;;-146.27;100.00;84590.47;5078188;28;20410;-67
2023/04/27 05:33:01;;;;;;;10.60;6.65;;;;;;;-146.27;100.00;84614.56;5094073;28;20088;-66
2023/04/27 05:35:26;;;;;;;9.57;6.55;;;;;;;-146.27;100.00;84574.38;5089982;28;20487;-67
2023/04/27 05:37:51;;;;;;;13.60;6.22;;;;;;;-146.27;100.00;84606.53;5094013;28;20047;-66
2023/04/27 05:40:17;;;;;;;14.10;5.95;;;;;;;-146.27;100.00;84570.34;5089931;28;20025;-67
2023/04/27 05:42:45;;;;;;;13.45;6.13;;;;;;;-146.27;100.00;84574.38;5093967;28;20058;-66
2023/04/27 05:45:10;;;;;;;11.98;5.50;;;;;;;-146.27;100.00;84558.31;5087432;28;20103;-67
2023/04/27 05:47:36;;;;;;;10.90;5.13;;;;;;;-146.27;100.00;84550.25;5094434;28;20034;-67
2023/04/27 05:50:02;;;;;;;11.77;5.93;;;;;;;-146.27;100.00;84518.09;5092002;28;20082;-65
2023/04/27 05:52:29;;;;;;;8.05;4.78;;;;;;;-146.27;100.00;84518.09;5082342;28;20039;-67
2023/04/27 05:54:55;;;;;;;16.80;6.10;;;;;;;-146.27;100.00;84534.19;5086322;28;20028;-68
2023/04/27 05:57:21;;;;;;;8.45;4.90;;;;;;;-146.27;100.00;84504.03;5083003;28;20020;-69
2023/04/27 05:59:46;;;;;;;12.75;5.35;;;;;;;-146.27;98.61;84526.13;5091524;28;20028;-69
2023/04/27 06:02:11;;;;;;;11.00;5.07;;;;;;;-146.27;98.40;84502.03;5086258;28;20035;-68
2023/04/27 06:04:37;;;;;;;12.35;6.05;;;;;;;-146.27;96.87;84510.06;5091901;28;20016;-67
2023/04/27 06:07:09;;;;;;;11.00;5.15;;;;;;;-146.27;96.52;84449.75;5091847;28;20039;-66
2023/04/27 06:09:35;;;;;;;9.05;5.20;;;;;;;-146.27;95.57;84433.69;5080932;28;20044;-70
2023/04/27 06:12:03;;;;;;;8.15;5.40;;;;;;;-146.27;94.89;84437.72;5090992;28;20097;-65
2023/04/27 06:14:28;;;;;;;11.48;5.75;;;;;;;-146.27;95.13;84465.84;5087546;28;20024;-65
2023/04/27 06:16:54;;;;;;;10.07;5.38;;;;;;;-146.27;94.10;84433.69;5092483;28;20054;-66
2023/04/27 06:19:19;;;;;;;15.35;4.75;;;;;;;-146.27;93.56;84409.56;5093180;28;20022;-65
2023/04/27 06:21:45;;;;;;;11.13;4.47;;;;;;;-146.27;92.64;84391.47;5080297;28;20471;-66
2023/04/27 06:24:10;;;;;;;11.25;5.28;;;;;;;-146.27;92.40;84355.31;5084530;28;20056;-65
2023/04/27 06:26:36;;;;;;;9.15;5.38;;;;;;;-146.27;92.53;84419.63;5090345;28;20081;-67
2023/04/27 06:29:03;;;;;;;11.45;5.93;;;;;;;-146.27;92.33;84381.44;5092107;28;20028;-65
2023/04/27 06:31:28;;;;;;;10.57;5.35;;;;;;;-146.27;91.56;84389.47;5088475;28;20041;-65
2023/04/27 06:33:54;;;;;;;15.00;5.45;;;;;;;-146.27;91.23;84333.19;5088681;28;20024;-66
2023/04/27 06:36:20;;;;;;;7.43;5.30;;;;;;;-146.27;91.96;84357.31;5093350;28;20480;-65
2023/04/27 06:38:45;;;;;;;16.55;5.38;;;;;;;-146.27;91.18;84443.75;5087165;28;20028;-66
2023/04/27 06:41:10;;;;;;;9.52;4.95;;;;;;;-146.27;90.49;84321.13;5082402;28;20107;-64
2023/04/27 06:43:36;;;;;;;10.68;5.28;;;;;;;-146.27;91.28;84317.13;5090377;28;20051;-65
2023/04/27 06:46:01;;;;;;;11.40;4.70;;;;;;;-146.27;89.46;84339.22;5082567;28;20044;-66
2023/04/27 06:48:27;;;;;;;7.78;4.75;;;;;;;-146.27;89.33;84301.03;5088566;28;20028;-65
2023/04/27 06:50:52;;;;;;;7.57;4.97;;;;;;;-146.27;87.50;84325.16;5090899;28;20035;-66
2023/04/27 06:53:17;;;;;;;7.28;5.13;;;;;;;-146.27;85.86;84264.88;5091304;28;20020;-66
2023/04/27 06:55:43;;;;;;;12.00;4.88;;;;;;;-146.27;85.05;84262.84;5086787;28;20408;-65
2023/04/27 06:58:08;;;;;;;9.10;4.40;;;;;;;-146.27;83.36;84260.84;5086989;28;20033;-65
2023/04/27 07:00:34;;;;;;;6.53;3.85;;;;;;;-146.27;82.00;84268.88;5089738;28;20027;-66
2023/04/27 07:02:59;;;;;;;10.68;4.35;;;;;;;-146.27;80.94;84248.78;5080993;28;20028;-67
2023/04/27 07:05:25;;;;;;;8.40;4.55;;;;;;;-146.27;81.06;84248.78;5093878;28;20032;-66
2023/04/27 07:07:50;;;;;;;5.72;4.22;;;;;;;-146.27;80.20;84236.72;5084736;28;20028;-65
2023/04/27 07:10:19;;;;;;;7.63;4.25;;;;;;;-146.27;80.24;84214.63;5089415;28;20120;-68
2023/04/27 07:12:45;;;;;;;8.15;4.43;;;;;;;-146.27;81.01;84218.63;5088247;28;20023;-66
2023/04/27 07:15:10;;;;;;;11.18;4.30;;;;;;;-146.27;80.08;84206.59;5090888;28;20479;-68
2023/04/27 07:17:35;;;;;;;8.85;3.92;;;;;;;-146.27;80.80;84190.50;5090165;28;20027;-65
2023/04/27 07:20:03;;;;;;;9.38;4.55;;;;;;;-146.27;80.25;84184.47;5091190;28;20037;-65
2023/04/27 07:22:28;;;;;;;9.40;4.63;;;;;;;-146.27;80.48;84148.31;5086772;28;20074;-66
2023/04/27 07:24:54;;;;;;;7.45;4.88;;;;;;;-146.27;79.86;84138.25;5090116;28;20027;-67
2023/04/27 07:27:19;;;;;;;8.10;4.38;;;;;;;-146.27;79.41;84140.25;5089507;28;20031;-66
2023/04/27 07:29:45;;;;;;;8.98;4.40;;;;;;;-146.27;79.58;84122.19;5080431;28;20020;-67
2023/04/27 07:32:10;;;;;;;10.43;4.15;;;;;;;-146.27;79.42;84112.13;5091105;28;20028;-65
2023/04/27 07:34:35;;;;;;;7.82;3.47;;;;;;;-146.27;75.60;84079.97;5073287;28;20376;-66
2023/04/27 07:37:01;;;;;;;6.05;3.13;;;;;;;-146.27;71.63;84120.16;5075197;28;20070;-66
2023/04/27 07:39:27;;;;;;;8.68;3.30;;;;;;;-146.27;70.27;84088.00;5089800;28;20046;-66
2023/04/27 07:41:53;;;;;;;7.13;3.75;;;;;;;-146.27;70.42;84049.84;5082006;28;20467;-65
2023/04/27 07:44:18;;;;;;;6.47;3.60;;;;;;;-146.27;70.25;84035.75;5093328;28;20476;-67
2023/04/27 07:46:47;;;;;;;8.63;4.05;;;;;;;-146.27;70.02;84035.75;5093406;28;20028;-66
2023/04/27 07:49:13;;;;;;;15.98;4.97;;;;;;;-146.27;70.75;84005.63;5090014;28;20475;-67
2023/04/27 07:51:38;;;;;;;8.60;3.47;;;;;;;-146.27;69.74;84090.03;5083525;28;20035;-66
2023/04/27 07:54:04;;;;;;;5.50;3.67;;;;;;;-146.27;68.45;83973.47;5089184;28;20036;-66
2023/04/27 07:56:29;;;;;;;9.57;3.50;;;;;;;-146.27;67.92;83983.50;5089902;28;20027;-67
2023/04/27 07:58:55;;;;;;;10.02;3.40;;;;;;;-146.27;67.57;83945.31;5089572;28;20106;-69
2023/04/27 08:01:21;;;;;;;9.15;3.30;;;;;;;-146.27;66.25;83951.34;5080907;28;20020;-67
2023/04/27 08:03:46;;;;;;;8.90;3.15;;;;;;;-146.27;66.39;83913.19;5087701;28;20454;-65
2023/04/27 08:06:11;;;;;;;4.32;2.80;;;;;;;-146.27;66.68;83921.22;5089675;28;20542;-65
2023/04/27 08:08:37;;;;;;;4.22;2.90;;;;;;;-146.27;65.23;83919.19;5092353;28;20055;-66
2023/04/27 08:11:02;;;;;;;8.30;3.00;;;;;;;-146.27;65.44;83907.16;5091860;28;20098;-66
2023/04/27 08:13:28;;;;;;;8.18;3.20;;;;;;;-146.27;64.46;83927.25;5092570;28;20028;-66
2023/04/27 08:15:57;;;;;;;6.22;3.00;;;;;;;-146.27;63.80;83919.19;5090570;28;20094;-66
2023/04/27 08:18:23;;;;;;;8.05;3.08;;;;;;;-146.27;64.10;83879.00;5080120;28;20107;-65
2023/04/27 08:20:48;;;;;;;9.38;3.70;;;;;;;-146.27;61.84;83814.72;5090095;28;20523;-69
2023/04/27 08:23:14;;;;;;;6.60;3.30;;;;;;;-146.27;62.73;83790.59;5089228;28;20116;-70
2023/04/27 08:25:39;;;;;;;5.15;2.70;;;;;;;-146.27;62.96;83818.72;5091748;28;20084;-69
2023/04/27 08:28:05;;;;;;;8.25;2.65;;;;;;;-146.27;60.78;83852.88;5092692;28;20028;-70
2023/04/27 08:30:30;;;;;;;4.10;2.50;;;;;;;-146.27;60.84;83820.75;5086026;28;20112;-69
2023/04/27 08:32:56;;;;;;;4.47;2.55;;;;;;;-146.27;60.36;83770.50;5088071;28;20028;-71
2023/04/27 08:35:21;;;;;;;5.25;3.00;;;;;;;-146.27;57.56;83750.41;5085300;28;20020;-71
2023/04/27 08:37:47;;;;;;;7.32;3.03;;;;;;;-146.27;58.55;83756.44;5092622;28;20545;-70
2023/04/27 08:40:12;;;;;;;7.97;2.47;;;;;;;-146.27;58.64;83804.66;5090530;28;20082;-70
2023/04/27 08:42:52;;;;;;;5.30;2.58;;;;;;;-146.27;59.55;83766.47;5090427;28;20024;-68
2023/04/27 08:45:18;;;;;;;10.07;3.67;;;;;;;-146.27;59.41;83756.44;5087061;28;20036;-69
2023/04/27 08:47:43;;;;;;;6.40;2.50;;;;;;;-146.27;58.69;83724.28;5088620;28;20119;-70
2023/04/27 08:50:10;;;;;;;4.47;3.15;;;;;;;-146.27;56.32;83708.22;5092188;28;20099;-69
2023/04/27 08:52:36;;;;;;;2.70;2.05;;;;;;;-146.27;55.93;83702.19;5093445;28;20107;-69
2023/04/27 08:55:03;;;;;;;5.55;2.67;;;;;;;-146.27;56.43;83708.22;5094288;28;20107;-70
2023/04/27 08:57:28;;;;;;;2.95;2.40;;;;;;;-146.27;53.77;83706.19;5094080;28;20112;-70
2023/04/27 09:00:00;;;;;;;3.00;2.20;;;;;;;-146.27;52.84;83653.94;5095029;28;20102;-69
2023/04/27 09:02:28;;;;;;;3.30;2.35;;;;;;;-146.27;51.35;83641.91;5095276;28;20066;-68
2023/04/27 09:04:55;;;;;;;7.90;2.35;;;;;;;-146.27;52.70;83653.94;5094584;28;20077;-69
2023/04/27 09:07:20;;;;;;;5.22;2.50;;;;;;;-146.27;51.75;83653.94;5095110;28;20031;-68
2023/04/27 09:09:47;;;;;;;7.70;3.25;;;;;;;-146.27;52.67;83629.84;5093835;28;20601;-69
2023/04/27 09:12:17;;;;;;;5.70;2.38;;;;;;;-146.27;53.03;83633.84;5095575;28;20031;-68
2023/04/27 09:14:54;;;;;;;6.28;2.60;;;;;;;-146.27;52.31;83581.59;5081303;28;20580;-69
2023/04/27 09:17:25;;;;;;;5.60;2.95;;;;;;;-146.27;52.06;83557.50;5093200;28;20028;-69
2023/04/27 09:19:50;;;;;;;5.03;2.75;;;;;;;-146.27;51.02;83517.31;5086071;28;20040;-69
2023/04/27 09:22:15;;;;;;;4.43;2.75;;;;;;;-146.27;49.86;83545.44;5088913;28;20020;-69
2023/04/27 09:24:53;;;;;;;6.20;2.85;;;;;;;-146.27;51.10;83511.28;5087994;28;20040;-69
2023/04/27 09:27:20;;;;;;;8.98;3.35;;;;;;;-146.27;53.37;83471.09;5085713;28;20032;-69
2023/04/27 09:29:46;;;;;;;7.32;3.67;;;;;;;-146.27;52.33;83493.19;5086313;28;20031;-68
2023/04/27 09:32:15;;;;;;;5.32;2.80;;;;;;;-146.27;51.13;83422.88;5095139;28;20030;-68
2023/04/27 09:34:41;;;;;;;4.30;2.88;;;;;;;-146.27;50.90;83386.69;5090221;28;20120;-72
2023/04/27 09:37:06;;;;;;;10.25;3.58;;;;;;;-146.27;52.24;83316.38;5085246;28;20031;-68
2023/04/27 09:39:33;;;;;;;10.30;3.88;;;;;;;-146.27;52.83;83312.34;5094081;28;20032;-68
2023/04/27 09:41:59;;;;;;;7.70;3.17;;;;;;;-146.27;48.76;83288.25;5092657;28;20043;-69
2023/04/27 09:44:27;;;;;;;7.72;3.33;;;;;;;-146.27;47.54;83278.19;5094368;28;20452;-68
2023/04/27 09:46:53;;;;;;;5.97;3.00;;;;;;;-146.27;45.11;83274.19;5084937;28;20028;-69
2023/04/27 09:49:20;;;;;;;8.85;3.55;;;;;;;-146.27;45.55;83276.19;5076344;28;20032;-68
2023/04/27 09:51:46;;;;;;;7.07;3.22;;;;;;;-146.27;45.10;83322.41;5091891;28;20031;-68
2023/04/27 09:54:13;;;;;;;8.05;3.72;;;;;;;-146.27;46.55;83209.88;5082686;28;20046;-67
2023/04/27 09:57:13;;;;;;;5.45;3.13;;;;;;;-146.27;43.55;83280.22;5095157;28;20016;-67
2023/04/27 10:00:06;;;;;;;4.05;3.40;;;;;;;-146.27;44.08;83219.94;5091021;28;20059;-69
2023/04/27 10:02:44;;;;;;;6.97;3.65;;;;;;;-146.27;45.46;83219.94;5073419;28;20028;-68
2023/04/27 10:05:09;;;;;;;6.30;3.05;;;;;;;-146.27;42.60;83175.72;5073306;28;20029;-68
2023/04/27 10:07:38;;;;;;;7.00;3.53;;;;;;;-146.27;43.98;83143.59;5073569;28;20024;-69
2023/04/27 10:10:04;;;;;;;7.03;3.10;;;;;;;-146.27;42.52;83163.69;5073505;28;20048;-68
2023/04/27 10:12:35;;;;;;;10.18;3.28;;;;;;;-146.27;43.71;83127.50;5073663;28;20074;-68
2023/04/27 10:15:12;;;;;;;9.20;3.53;;;;;;;-146.27;41.95;83111.44;5075069;28;20024;-68
2023/04/27 10:17:37;;;;;;;6.40;3.47;;;;;;;-146.27;41.26;83077.28;5084355;28;20101;-69
2023/04/27 10:20:06;;;;;;;8.63;3.35;;;;;;;-146.27;41.58;83075.28;5094062;28;20056;-67
2023/04/27 10:22:42;;;;;;;4.55;3.47;;;;;;;-146.27;45.17;83057.19;5079565;28;20028;-68
2023/04/27 10:25:28;;;;;;;6.05;3.20;;;;;;;-146.27;40.25;83023.03;5073922;28;20158;-68
2023/04/27 10:27:55;;;;;;;6.60;3.65;;;;;;;-146.27;39.36;83059.19;5074716;28;20024;-67
2023/04/27 10:30:26;;;;;;;7.35;3.60;;;;;;;-146.27;40.62;83071.25;5074569;28;20095;-68
2023/04/27 10:32:56;;;;;;;6.72;4.47;;;;;;;-146.27;42.42;83067.25;5081324;28;20476;-68
2023/04/27 10:35:31;;;;;;;6.38;3.92;;;;;;;-146.27;42.98;83043.13;5074488;28;20021;-67
2023/04/27 10:38:05;;;;;;;7.93;3.20;;;;;;;-146.27;41.50;82964.78;5087218;28;20372;-69
2023/04/27 10:40:35;;;;;;;6.55;3.83;;;;;;;-146.27;42.02;82912.53;5094676;28;20023;-69
2023/04/27 10:43:23;;;;;;;6.43;3.83;;;;;;;-146.27;38.77;82894.47;5094613;28;20028;-67
2023/04/27 10:45:49;;;;;;;3.92;3.08;;;;;;;-146.27;37.81;82920.56;5093912;28;20085;-67
2023/04/27 10:48:14;;;;;;;11.35;3.83;;;;;;;-146.27;41.72;82862.31;5091717;28;20036;-68
2023/04/27 10:50:40;;;;;;;4.30;3.25;;;;;;;-146.27;40.93;82777.94;5092965;28;20023;-68
2023/04/27 10:53:06;;;;;;;8.05;3.63;;;;;;;-146.27;39.63;82621.22;5092174;28;20119;-68
2023/04/27 10:55:33;;;;;;;8.45;3.80;;;;;;;-146.27;36.05;82733.72;5093560;28;20023;-67
2023/04/27 10:58:00;;;;;;;8.73;4.18;;;;;;;-146.27;35.56;82739.75;5076984;28;20038;-69
2023/04/27 11:00:32;;;;;;;4.78;4.07;;;;;;;-146.27;36.59;82729.72;5073959;28;20032;-69
2023/04/27 11:03:11;;;;;;;8.18;3.92;;;;;;;-146.27;36.02;82806.06;5081607;28;20031;-68
2023/04/27 11:05:36;;;;;;;6.28;3.45;;;;;;;-146.27;37.61;82777.94;5091458;28;20020;-68